sensor_id;sensor_type;location;lat;lon;timestamp;pressure;altitude;pressure_sealevel;temperature;humidity
79250;BME280;68679;51.030;7.584;2023-04-25T00:02:24;98341.72;;;3.59;74.40
79250;BME280;68679;51.030;7.584;2023-04-25T00:04:49;98345.09;;;3.60;74.24
79250;BME280;68679;51.030;7.584;2023-04-25T00:07:15;98347.69;;;3.60;74.26
79250;BME280;68679;51.030;7.584;2023-04-25T00:09:41;98344.78;;;3.56;74.08
79250;BME280;68679;51.030;7.584;2023-04-25T00:12:07;98353.59;;;3.55;74.15
79250;BME280;68679;51.030;7.584;2023-04-25T00:14:32;98349.91;;;3.51;74.09
79250;BME280;68679;51.030;7.584;2023-04-25T00:16:59;98344.78;;;3.56;73.86
79250;BME280;68679;51.030;7.584;2023-04-25T00:19:25;98344.56;;;3.36;74.54
79250;BME280;68679;51.030;7.584;2023-04-25T00:21:52;98347.16;;;3.36;74.56
79250;BME280;68679;51.030;7.584;2023-04-25T00:24:19;98349.66;;;3.31;74.50
79250;BME280;68679;51.030;7.584;2023-04-25T00:26:44;98349.13;;;3.29;75.10
79250;BME280;68679;51.030;7.584;2023-04-25T00:29:09;98346.47;;;3.23;75.00
79250;BME280;68679;51.030;7.584;2023-04-25T00:31:35;98342.31;;;3.22;75.49
79250;BME280;68679;51.030;7.584;2023-04-25T00:34:00;98357.94;;;3.28;75.17
79250;BME280;68679;51.030;7.584;2023-04-25T00:36:26;98351.94;;;3.27;75.67
79250;BME280;68679;51.030;7.584;2023-04-25T00:38:53;98352.13;;;3.20;74.95
79250;BME280;68679;51.030;7.584;2023-04-25T00:41:19;98350.09;;;3.22;75.38
79250;BME280;68679;51.030;7.584;2023-04-25T00:43:45;98352.91;;;3.21;75.32
79250;BME280;68679;51.030;7.584;2023-04-25T00:46:11;98349.78;;;3.19;75.67
79250;BME280;68679;51.030;7.584;2023-04-25T00:48:37;98352.38;;;3.19;75.95
79250;BME280;68679;51.030;7.584;2023-04-25T00:51:02;98356.22;;;3.16;75.85
79250;BME280;68679;51.030;7.584;2023-04-25T00:53:28;98353.09;;;3.14;75.68
79250;BME280;68679;51.030;7.584;2023-04-25T00:55:55;98355.38;;;3.11;75.47
79250;BME280;68679;51.030;7.584;2023-04-25T00:58:21;98351.75;;;3.12;76.06
79250;BME280;68679;51.030;7.584;2023-04-25T01:00:48;98353.56;;;3.11;76.53
79250;BME280;68679;51.030;7.584;2023-04-25T01:03:15;98355.66;;;3.14;76.24
79250;BME280;68679;51.030;7.584;2023-04-25T01:05:47;98348.63;;;3.10;75.90
79250;BME280;68679;51.030;7.584;2023-04-25T01:08:13;98358.25;;;3.14;76.18
79250;BME280;68679;51.030;7.584;2023-04-25T01:10:39;98350.50;;;3.14;76.37
79250;BME280;68679;51.030;7.584;2023-04-25T01:13:04;98350.75;;;3.13;76.46
79250;BME280;68679;51.030;7.584;2023-04-25T01:15:30;98356.00;;;3.18;76.47
79250;BME280;68679;51.030;7.584;2023-04-25T01:17:56;98354.19;;;3.18;76.43
79250;BME280;68679;51.030;7.584;2023-04-25T01:20:22;98351.91;;;3.22;76.62
79250;BME280;68679;51.030;7.584;2023-04-25T01:22:50;98351.66;;;3.23;76.28
79250;BME280;68679;51.030;7.584;2023-04-25T01:25:16;98349.91;;;3.29;77.04
79250;BME280;68679;51.030;7.584;2023-04-25T01:27:42;98345.28;;;3.31;76.71
79250;BME280;68679;51.030;7.584;2023-04-25T01:30:08;98345.59;;;3.35;76.75
79250;BME280;68679;51.030;7.584;2023-04-25T01:32:34;98348.72;;;3.37;76.69
79250;BME280;68679;51.030;7.584;2023-04-25T01:35:05;98353.91;;;3.37;77.08
79250;BME280;68679;51.030;7.584;2023-04-25T01:37:37;98362.97;;;3.39;76.81
79250;BME280;68679;51.030;7.584;2023-04-25T01:40:04;98355.28;;;3.44;76.74
79250;BME280;68679;51.030;7.584;2023-04-25T01:42:31;98364.16;;;3.48;77.04
79250;BME280;68679;51.030;7.584;2023-04-25T01:44:56;98362.34;;;3.49;77.17
79250;BME280;68679;51.030;7.584;2023-04-25T01:47:22;98365.72;;;3.49;76.78
79250;BME280;68679;51.030;7.584;2023-04-25T01:49:47;98361.31;;;3.50;77.21
79250;BME280;68679;51.030;7.584;2023-04-25T01:52:12;98369.94;;;3.56;77.33
79250;BME280;68679;51.030;7.584;2023-04-25T01:54:37;98362.69;;;3.58;77.48
79250;BME280;68679;51.030;7.584;2023-04-25T01:57:03;98371.59;;;3.45;78.84
79250;BME280;68679;51.030;7.584;2023-04-25T01:59:28;98370.19;;;3.54;78.29
79250;BME280;68679;51.030;7.584;2023-04-25T02:01:54;98369.22;;;3.60;78.00
79250;BME280;68679;51.030;7.584;2023-04-25T02:04:19;98364.81;;;3.61;78.15
79250;BME280;68679;51.030;7.584;2023-04-25T02:06:44;98365.66;;;3.66;79.10
79250;BME280;68679;51.030;7.584;2023-04-25T02:09:10;98376.28;;;3.65;78.20
79250;BME280;68679;51.030;7.584;2023-04-25T02:11:35;98373.72;;;3.70;78.22
79250;BME280;68679;51.030;7.584;2023-04-25T02:14:00;98370.59;;;3.68;78.36
79250;BME280;68679;51.030;7.584;2023-04-25T02:16:25;98373.44;;;3.66;78.42
79250;BME280;68679;51.030;7.584;2023-04-25T02:18:51;98377.13;;;3.70;78.75
79250;BME280;68679;51.030;7.584;2023-04-25T02:21:17;98372.28;;;3.79;78.52
79250;BME280;68679;51.030;7.584;2023-04-25T02:23:43;98371.00;;;3.82;79.15
79250;BME280;68679;51.030;7.584;2023-04-25T02:26:10;98367.66;;;3.86;78.57
79250;BME280;68679;51.030;7.584;2023-04-25T02:28:38;98363.84;;;3.94;78.92
79250;BME280;68679;51.030;7.584;2023-04-25T02:31:03;98381.22;;;3.93;79.55
79250;BME280;68679;51.030;7.584;2023-04-25T02:33:28;98376.88;;;3.99;78.94
79250;BME280;68679;51.030;7.584;2023-04-25T02:35:54;98380.56;;;4.03;79.36
79250;BME280;68679;51.030;7.584;2023-04-25T02:38:20;98384.47;;;4.06;79.14
79250;BME280;68679;51.030;7.584;2023-04-25T02:40:45;98382.44;;;4.08;79.02
79250;BME280;68679;51.030;7.584;2023-04-25T02:43:10;98374.72;;;4.18;79.01
79250;BME280;68679;51.030;7.584;2023-04-25T02:45:36;98381.53;;;4.24;79.09
79250;BME280;68679;51.030;7.584;2023-04-25T02:48:03;98384.91;;;4.24;78.56
79250;BME280;68679;51.030;7.584;2023-04-25T02:50:28;98385.75;;;4.30;79.25
79250;BME280;68679;51.030;7.584;2023-04-25T02:52:53;98384.47;;;4.33;78.58
79250;BME280;68679;51.030;7.584;2023-04-25T02:55:19;98383.19;;;4.35;78.32
79250;BME280;68679;51.030;7.584;2023-04-25T02:57:45;98383.50;;;4.39;77.82
79250;BME280;68679;51.030;7.584;2023-04-25T03:00:11;98376.25;;;4.41;77.83
79250;BME280;68679;51.030;7.584;2023-04-25T03:02:36;98382.50;;;4.45;77.68
79250;BME280;68679;51.030;7.584;2023-04-25T03:05:02;98377.59;;;4.48;77.77
79250;BME280;68679;51.030;7.584;2023-04-25T03:07:28;98376.34;;;4.51;77.47
79250;BME280;68679;51.030;7.584;2023-04-25T03:09:53;98373.47;;;4.52;78.33
79250;BME280;68679;51.030;7.584;2023-04-25T03:12:19;98377.38;;;4.55;77.83
79250;BME280;68679;51.030;7.584;2023-04-25T03:14:44;98380.53;;;4.57;77.14
79250;BME280;68679;51.030;7.584;2023-04-25T03:17:09;98373.03;;;4.61;77.29
79250;BME280;68679;51.030;7.584;2023-04-25T03:19:35;98374.34;;;4.63;77.09
79250;BME280;68679;51.030;7.584;2023-04-25T03:22:00;98373.31;;;4.64;77.14
79250;BME280;68679;51.030;7.584;2023-04-25T03:24:26;98373.06;;;4.66;77.12
79250;BME280;68679;51.030;7.584;2023-04-25T03:26:52;98368.66;;;4.66;77.53
79250;BME280;68679;51.030;7.584;2023-04-25T03:29:17;98372.28;;;4.65;77.27
79250;BME280;68679;51.030;7.584;2023-04-25T03:31:42;98374.91;;;4.70;77.21
79250;BME280;68679;51.030;7.584;2023-04-25T03:34:08;98368.94;;;4.70;76.85
79250;BME280;68679;51.030;7.584;2023-04-25T03:36:33;98380.13;;;4.70;77.22
79250;BME280;68679;51.030;7.584;2023-04-25T03:38:58;98378.03;;;4.72;77.42
79250;BME280;68679;51.030;7.584;2023-04-25T03:41:23;98375.44;;;4.72;77.15
79250;BME280;68679;51.030;7.584;2023-04-25T03:43:49;98385.31;;;4.70;78.05
79250;BME280;68679;51.030;7.584;2023-04-25T03:46:14;98380.16;;;4.75;77.63
79250;BME280;68679;51.030;7.584;2023-04-25T03:48:39;98380.16;;;4.75;77.23
79250;BME280;68679;51.030;7.584;2023-04-25T03:51:05;98376.53;;;4.76;77.09
79250;BME280;68679;51.030;7.584;2023-04-25T03:53:30;98381.97;;;4.75;77.08
79250;BME280;68679;51.030;7.584;2023-04-25T03:55:55;98378.44;;;4.86;76.68
79250;BME280;68679;51.030;7.584;2023-04-25T03:58:20;98381.75;;;4.81;76.65
79250;BME280;68679;51.030;7.584;2023-04-25T04:00:48;98380.72;;;4.82;77.18
79250;BME280;68679;51.030;7.584;2023-04-25T04:03:13;98385.66;;;4.84;77.16
79250;BME280;68679;51.030;7.584;2023-04-25T04:05:38;98374.78;;;4.87;77.07
79250;BME280;68679;51.030;7.584;2023-04-25T04:08:05;98380.47;;;4.84;76.72
79250;BME280;68679;51.030;7.584;2023-04-25T04:10:31;98383.34;;;4.88;76.41
79250;BME280;68679;51.030;7.584;2023-04-25T04:12:56;98383.09;;;4.89;76.44
79250;BME280;68679;51.030;7.584;2023-04-25T04:15:21;98381.59;;;4.93;76.55
79250;BME280;68679;51.030;7.584;2023-04-25T04:17:48;98386.78;;;4.93;76.81
79250;BME280;68679;51.030;7.584;2023-04-25T04:20:13;98383.16;;;4.94;76.44
79250;BME280;68679;51.030;7.584;2023-04-25T04:22:38;98387.03;;;4.92;76.81
79250;BME280;68679;51.030;7.584;2023-04-25T04:25:04;98386.00;;;4.93;76.37
79250;BME280;68679;51.030;7.584;2023-04-25T04:27:30;98389.63;;;4.97;76.38
79250;BME280;68679;51.030;7.584;2023-04-25T04:29:56;98393.28;;;4.96;76.63
79250;BME280;68679;51.030;7.584;2023-04-25T04:32:22;98396.13;;;4.94;76.79
79250;BME280;68679;51.030;7.584;2023-04-25T04:34:48;98397.94;;;4.94;76.61
79250;BME280;68679;51.030;7.584;2023-04-25T04:37:13;98388.34;;;4.94;76.79
79250;BME280;68679;51.030;7.584;2023-04-25T04:39:40;98390.19;;;4.99;76.61
79250;BME280;68679;51.030;7.584;2023-04-25T04:42:05;98394.63;;;4.98;76.65
79250;BME280;68679;51.030;7.584;2023-04-25T04:44:31;98403.97;;;4.99;76.64
79250;BME280;68679;51.030;7.584;2023-04-25T04:46:59;98409.69;;;5.01;76.70
79250;BME280;68679;51.030;7.584;2023-04-25T04:49:25;98409.44;;;5.03;77.16
79250;BME280;68679;51.030;7.584;2023-04-25T04:51:50;98411.53;;;5.06;77.04
79250;BME280;68679;51.030;7.584;2023-04-25T04:54:15;98412.56;;;5.05;77.47
79250;BME280;68679;51.030;7.584;2023-04-25T04:56:41;98415.69;;;5.07;77.72
79250;BME280;68679;51.030;7.584;2023-04-25T04:59:07;98411.28;;;5.07;76.98
79250;BME280;68679;51.030;7.584;2023-04-25T05:01:32;98414.66;;;5.08;76.42
79250;BME280;68679;51.030;7.584;2023-04-25T05:04:00;98418.59;;;5.10;76.29
79250;BME280;68679;51.030;7.584;2023-04-25T05:06:27;98416.53;;;5.13;76.55
79250;BME280;68679;51.030;7.584;2023-04-25T05:08:54;98420.41;;;5.15;76.34
79250;BME280;68679;51.030;7.584;2023-04-25T05:11:19;98420.41;;;5.15;76.18
79250;BME280;68679;51.030;7.584;2023-04-25T05:13:46;98428.25;;;5.20;76.12
79250;BME280;68679;51.030;7.584;2023-04-25T05:16:12;98424.63;;;5.21;76.11
79250;BME280;68679;51.030;7.584;2023-04-25T05:18:38;98428.28;;;5.25;75.83
79250;BME280;68679;51.030;7.584;2023-04-25T05:21:03;98424.66;;;5.26;75.90
79250;BME280;68679;51.030;7.584;2023-04-25T05:23:29;98433.22;;;5.27;75.98
79250;BME280;68679;51.030;7.584;2023-04-25T05:25:55;98444.47;;;5.37;74.71
79250;BME280;68679;51.030;7.584;2023-04-25T05:28:21;98446.00;;;5.33;74.46
79250;BME280;68679;51.030;7.584;2023-04-25T05:30:46;98451.78;;;5.41;74.00
79250;BME280;68679;51.030;7.584;2023-04-25T05:33:12;98453.19;;;5.21;73.81
79250;BME280;68679;51.030;7.584;2023-04-25T05:35:37;98458.69;;;5.25;74.17
79250;BME280;68679;51.030;7.584;2023-04-25T05:38:02;98460.00;;;5.22;74.55
79250;BME280;68679;51.030;7.584;2023-04-25T05:40:27;98459.47;;;5.25;74.07
79250;BME280;68679;51.030;7.584;2023-04-25T05:42:53;98470.63;;;5.21;74.75
79250;BME280;68679;51.030;7.584;2023-04-25T05:45:18;98464.19;;;5.28;74.29
79250;BME280;68679;51.030;7.584;2023-04-25T05:47:43;98460.22;;;5.21;73.41
79250;BME280;68679;51.030;7.584;2023-04-25T05:50:09;98467.22;;;5.20;74.16
79250;BME280;68679;51.030;7.584;2023-04-25T05:52:34;98473.50;;;5.24;73.87
79250;BME280;68679;51.030;7.584;2023-04-25T05:54:59;98476.13;;;5.24;73.79
79250;BME280;68679;51.030;7.584;2023-04-25T05:57:26;98486.50;;;5.24;74.22
79250;BME280;68679;51.030;7.584;2023-04-25T05:59:52;98483.13;;;5.24;73.70
79250;BME280;68679;51.030;7.584;2023-04-25T06:02:19;98496.91;;;5.24;74.40
79250;BME280;68679;51.030;7.584;2023-04-25T06:04:46;98489.41;;;5.33;74.58
79250;BME280;68679;51.030;7.584;2023-04-25T06:07:11;98482.38;;;5.28;74.42
79250;BME280;68679;51.030;7.584;2023-04-25T06:09:36;98492.22;;;5.26;74.16
79250;BME280;68679;51.030;7.584;2023-04-25T06:12:04;98491.75;;;5.29;74.75
79250;BME280;68679;51.030;7.584;2023-04-25T06:14:29;98506.59;;;5.34;74.29
79250;BME280;68679;51.030;7.584;2023-04-25T06:16:55;98504.56;;;5.41;74.75
79250;BME280;68679;51.030;7.584;2023-04-25T06:19:20;98510.03;;;5.45;73.88
79250;BME280;68679;51.030;7.584;2023-04-25T06:21:46;98509.06;;;5.56;73.06
79250;BME280;68679;51.030;7.584;2023-04-25T06:24:12;98510.59;;;5.52;73.11
79250;BME280;68679;51.030;7.584;2023-04-25T06:26:37;98519.66;;;5.44;73.48
79250;BME280;68679;51.030;7.584;2023-04-25T06:29:03;98527.97;;;5.41;73.20
79250;BME280;68679;51.030;7.584;2023-04-25T06:31:28;98531.31;;;5.36;71.72
79250;BME280;68679;51.030;7.584;2023-04-25T06:33:58;98525.06;;;5.37;71.95
79250;BME280;68679;51.030;7.584;2023-04-25T06:36:23;98536.25;;;5.38;71.00
79250;BME280;68679;51.030;7.584;2023-04-25T06:38:53;98535.69;;;5.31;71.07
79250;BME280;68679;51.030;7.584;2023-04-25T06:41:19;98539.72;;;5.17;71.33
79250;BME280;68679;51.030;7.584;2023-04-25T06:43:44;98538.66;;;5.13;72.05
79250;BME280;68679;51.030;7.584;2023-04-25T06:46:10;98539.63;;;5.06;71.85
79250;BME280;68679;51.030;7.584;2023-04-25T06:48:36;98537.34;;;5.10;72.48
79250;BME280;68679;51.030;7.584;2023-04-25T06:51:01;98542.50;;;5.05;72.03
79250;BME280;68679;51.030;7.584;2023-04-25T06:53:26;98541.16;;;5.02;72.93
79250;BME280;68679;51.030;7.584;2023-04-25T06:55:52;98532.38;;;5.08;73.04
79250;BME280;68679;51.030;7.584;2023-04-25T06:58:17;98541.81;;;5.20;71.99
79250;BME280;68679;51.030;7.584;2023-04-25T07:00:43;98538.75;;;5.23;72.11
79250;BME280;68679;51.030;7.584;2023-04-25T07:03:08;98534.81;;;5.20;72.25
79250;BME280;68679;51.030;7.584;2023-04-25T07:05:33;98533.81;;;5.26;72.17
79250;BME280;68679;51.030;7.584;2023-04-25T07:07:59;98534.13;;;5.30;72.95
79250;BME280;68679;51.030;7.584;2023-04-25T07:10:25;98537.50;;;5.30;72.53
79250;BME280;68679;51.030;7.584;2023-04-25T07:12:50;98535.47;;;5.37;72.80
79250;BME280;68679;51.030;7.584;2023-04-25T07:15:16;98522.59;;;5.53;70.24
79250;BME280;68679;51.030;7.584;2023-04-25T07:17:41;98534.28;;;5.55;70.47
79250;BME280;68679;51.030;7.584;2023-04-25T07:20:07;98531.16;;;5.53;71.27
79250;BME280;68679;51.030;7.584;2023-04-25T07:22:34;98546.56;;;5.60;71.62
79250;BME280;68679;51.030;7.584;2023-04-25T07:24:59;98539.84;;;5.69;71.40
79250;BME280;68679;51.030;7.584;2023-04-25T07:27:24;98547.94;;;5.73;70.98
79250;BME280;68679;51.030;7.584;2023-04-25T07:29:50;98538.28;;;5.68;69.68
79250;BME280;68679;51.030;7.584;2023-04-25T07:32:15;98540.75;;;5.90;68.64
79250;BME280;68679;51.030;7.584;2023-04-25T07:34:40;98551.91;;;5.85;67.57
79250;BME280;68679;51.030;7.584;2023-04-25T07:37:06;98554.75;;;5.84;67.93
79250;BME280;68679;51.030;7.584;2023-04-25T07:39:31;98554.22;;;5.82;69.67
79250;BME280;68679;51.030;7.584;2023-04-25T07:41:57;98550.59;;;5.88;68.64
79250;BME280;68679;51.030;7.584;2023-04-25T07:44:23;98553.31;;;5.98;68.36
79250;BME280;68679;51.030;7.584;2023-04-25T07:46:49;98556.78;;;6.14;67.60
79250;BME280;68679;51.030;7.584;2023-04-25T07:49:14;98567.19;;;6.14;65.66
79250;BME280;68679;51.030;7.584;2023-04-25T07:51:40;98557.59;;;6.20;64.94
79250;BME280;68679;51.030;7.584;2023-04-25T07:54:06;98557.06;;;6.23;65.88
79250;BME280;68679;51.030;7.584;2023-04-25T07:56:32;98567.25;;;6.29;64.58
79250;BME280;68679;51.030;7.584;2023-04-25T07:58:57;98565.94;;;6.27;62.96
79250;BME280;68679;51.030;7.584;2023-04-25T08:01:22;98564.84;;;6.17;64.00
79250;BME280;68679;51.030;7.584;2023-04-25T08:03:48;98570.59;;;6.25;64.50
79250;BME280;68679;51.030;7.584;2023-04-25T08:06:13;98572.97;;;6.26;63.52
79250;BME280;68679;51.030;7.584;2023-04-25T08:08:38;98577.38;;;6.21;63.44
79250;BME280;68679;51.030;7.584;2023-04-25T08:11:03;98579.72;;;6.22;64.28
79250;BME280;68679;51.030;7.584;2023-04-25T08:13:29;98582.09;;;6.29;62.62
79250;BME280;68679;51.030;7.584;2023-04-25T08:15:54;98582.88;;;6.29;62.50
79250;BME280;68679;51.030;7.584;2023-04-25T08:18:20;98581.09;;;6.40;61.53
79250;BME280;68679;51.030;7.584;2023-04-25T08:20:45;98579.31;;;6.51;64.04
79250;BME280;68679;51.030;7.584;2023-04-25T08:23:10;98590.06;;;6.69;63.34
79250;BME280;68679;51.030;7.584;2023-04-25T08:25:36;98583.56;;;6.77;61.18
79250;BME280;68679;51.030;7.584;2023-04-25T08:28:01;98604.16;;;6.84;60.96
79250;BME280;68679;51.030;7.584;2023-04-25T08:30:28;98601.06;;;6.87;58.87
79250;BME280;68679;51.030;7.584;2023-04-25T08:32:53;98604.47;;;6.92;57.63
79250;BME280;68679;51.030;7.584;2023-04-25T08:35:19;98609.91;;;6.91;56.89
79250;BME280;68679;51.030;7.584;2023-04-25T08:37:45;98609.91;;;6.86;54.79
79250;BME280;68679;51.030;7.584;2023-04-25T08:40:13;98620.84;;;6.83;55.60
79250;BME280;68679;51.030;7.584;2023-04-25T08:42:41;98625.78;;;6.74;54.31
79250;BME280;68679;51.030;7.584;2023-04-25T08:45:08;98619.25;;;6.77;55.92
79250;BME280;68679;51.030;7.584;2023-04-25T08:47:33;98630.47;;;6.82;57.35
79250;BME280;68679;51.030;7.584;2023-04-25T08:50:03;98627.38;;;6.90;55.38
79250;BME280;68679;51.030;7.584;2023-04-25T08:52:35;98647.38;;;6.69;56.98
79250;BME280;68679;51.030;7.584;2023-04-25T08:55:01;98646.28;;;6.60;57.13
79250;BME280;68679;51.030;7.584;2023-04-25T08:57:27;98651.25;;;6.62;57.82
79250;BME280;68679;51.030;7.584;2023-04-25T08:59:53;98661.59;;;6.47;57.44
79250;BME280;68679;51.030;7.584;2023-04-25T09:02:19;98675.91;;;6.49;59.85
79250;BME280;68679;51.030;7.584;2023-04-25T09:04:46;98676.69;;;6.44;57.51
79250;BME280;68679;51.030;7.584;2023-04-25T09:07:11;98671.22;;;6.46;55.66
79250;BME280;68679;51.030;7.584;2023-04-25T09:09:36;98671.72;;;6.43;56.09
79250;BME280;68679;51.030;7.584;2023-04-25T09:12:02;98677.44;;;6.40;58.08
79250;BME280;68679;51.030;7.584;2023-04-25T09:14:27;98679.00;;;6.41;57.01
79250;BME280;68679;51.030;7.584;2023-04-25T09:19:23;98673.53;;;6.42;57.16
79250;BME280;68679;51.030;7.584;2023-04-25T09:21:53;98682.97;;;6.54;57.47
79250;BME280;68679;51.030;7.584;2023-04-25T09:24:39;98685.03;;;6.47;57.48
79250;BME280;68679;51.030;7.584;2023-04-25T09:27:09;98685.13;;;6.67;57.85
79250;BME280;68679;51.030;7.584;2023-04-25T09:29:37;98695.91;;;6.91;58.83
79250;BME280;68679;51.030;7.584;2023-04-25T09:34:42;98687.38;;;7.06;56.42
79250;BME280;68679;51.030;7.584;2023-04-25T09:37:11;98695.78;;;7.28;55.90
79250;BME280;68679;51.030;7.584;2023-04-25T09:39:38;98697.59;;;7.22;55.74
79250;BME280;68679;51.030;7.584;2023-04-25T09:42:04;98696.78;;;7.12;56.70
79250;BME280;68679;51.030;7.584;2023-04-25T09:44:29;98694.66;;;7.09;55.65
79250;BME280;68679;51.030;7.584;2023-04-25T09:46:55;98705.16;;;7.24;56.76
79250;BME280;68679;51.030;7.584;2023-04-25T09:49:20;98702.06;;;7.37;55.25
79250;BME280;68679;51.030;7.584;2023-04-25T09:51:56;98700.22;;;7.33;56.78
79250;BME280;68679;51.030;7.584;2023-04-25T09:54:23;98701.28;;;7.42;55.38
79250;BME280;68679;51.030;7.584;2023-04-25T09:56:51;98705.72;;;7.41;55.67
79250;BME280;68679;51.030;7.584;2023-04-25T09:59:19;98707.84;;;7.60;54.05
79250;BME280;68679;51.030;7.584;2023-04-25T10:01:45;98695.31;;;7.62;54.17
79250;BME280;68679;51.030;7.584;2023-04-25T10:04:11;98696.59;;;7.64;55.09
79250;BME280;68679;51.030;7.584;2023-04-25T10:06:37;98704.97;;;7.66;55.81
79250;BME280;68679;51.030;7.584;2023-04-25T10:09:03;98708.91;;;7.79;53.74
79250;BME280;68679;51.030;7.584;2023-04-25T10:11:30;98718.56;;;7.78;52.97
79250;BME280;68679;51.030;7.584;2023-04-25T10:13:56;98726.66;;;7.72;53.17
79250;BME280;68679;51.030;7.584;2023-04-25T10:16:43;98713.34;;;7.78;52.01
79250;BME280;68679;51.030;7.584;2023-04-25T10:19:10;98724.81;;;7.72;53.02
79250;BME280;68679;51.030;7.584;2023-04-25T10:21:51;98716.47;;;7.80;55.43
79250;BME280;68679;51.030;7.584;2023-04-25T10:24:17;98730.56;;;7.79;51.67
79250;BME280;68679;51.030;7.584;2023-04-25T10:26:44;98724.28;;;7.80;49.75
79250;BME280;68679;51.030;7.584;2023-04-25T10:29:10;98724.56;;;7.74;47.79
79250;BME280;68679;51.030;7.584;2023-04-25T10:31:45;98737.31;;;7.60;48.36
79250;BME280;68679;51.030;7.584;2023-04-25T10:34:10;98734.19;;;7.53;50.07
79250;BME280;68679;51.030;7.584;2023-04-25T10:36:35;98739.66;;;7.62;49.65
79250;BME280;68679;51.030;7.584;2023-04-25T10:39:04;98749.34;;;7.66;51.25
79250;BME280;68679;51.030;7.584;2023-04-25T10:41:45;98734.22;;;7.73;49.38
79250;BME280;68679;51.030;7.584;2023-04-25T10:44:11;98732.38;;;7.79;51.18
79250;BME280;68679;51.030;7.584;2023-04-25T10:46:37;98730.81;;;7.88;50.13
79250;BME280;68679;51.030;7.584;2023-04-25T10:49:02;98742.56;;;7.86;50.31
79250;BME280;68679;51.030;7.584;2023-04-25T10:51:32;98739.19;;;7.85;50.74
79250;BME280;68679;51.030;7.584;2023-04-25T10:56:37;98745.69;;;7.67;50.73
79250;BME280;68679;51.030;7.584;2023-04-25T10:59:11;98753.25;;;7.69;50.71
79250;BME280;68679;51.030;7.584;2023-04-25T11:01:45;98751.16;;;7.76;49.74
79250;BME280;68679;51.030;7.584;2023-04-25T11:09:17;98765.00;;;7.71;49.02
79250;BME280;68679;51.030;7.584;2023-04-25T11:11:42;98760.31;;;7.73;48.50
79250;BME280;68679;51.030;7.584;2023-04-25T11:14:07;98754.31;;;7.93;47.14
79250;BME280;68679;51.030;7.584;2023-04-25T11:16:33;98745.97;;;7.91;47.17
79250;BME280;68679;51.030;7.584;2023-04-25T11:18:58;98741.00;;;8.05;49.26
79250;BME280;68679;51.030;7.584;2023-04-25T11:21:27;98744.97;;;8.38;51.00
79250;BME280;68679;51.030;7.584;2023-04-25T11:23:53;98738.66;;;8.29;47.13
79250;BME280;68679;51.030;7.584;2023-04-25T11:26:19;98745.19;;;8.26;47.30
79250;BME280;68679;51.030;7.584;2023-04-25T11:28:45;98739.47;;;8.45;47.40
79250;BME280;68679;51.030;7.584;2023-04-25T11:31:12;98741.53;;;8.58;47.98
79250;BME280;68679;51.030;7.584;2023-04-25T11:33:37;98738.34;;;8.76;46.93
79250;BME280;68679;51.030;7.584;2023-04-25T11:36:03;98741.25;;;8.65;48.25
79250;BME280;68679;51.030;7.584;2023-04-25T11:38:28;98747.25;;;8.60;47.84
79250;BME280;68679;51.030;7.584;2023-04-25T11:40:54;98748.34;;;8.44;48.61
79250;BME280;68679;51.030;7.584;2023-04-25T11:43:21;98752.25;;;8.36;47.69
79250;BME280;68679;51.030;7.584;2023-04-25T11:45:48;98756.69;;;8.15;45.96
79250;BME280;68679;51.030;7.584;2023-04-25T11:48:14;98760.84;;;8.06;46.39
79250;BME280;68679;51.030;7.584;2023-04-25T11:50:39;98755.38;;;7.97;47.67
79250;BME280;68679;51.030;7.584;2023-04-25T11:53:05;98762.16;;;8.03;48.94
79250;BME280;68679;51.030;7.584;2023-04-25T11:55:31;98769.72;;;7.79;47.32
79250;BME280;68679;51.030;7.584;2023-04-25T11:57:59;98763.44;;;7.75;47.95
79250;BME280;68679;51.030;7.584;2023-04-25T12:00:25;98768.19;;;7.89;48.98
79250;BME280;68679;51.030;7.584;2023-04-25T12:02:53;98765.81;;;7.92;49.66
79250;BME280;68679;51.030;7.584;2023-04-25T12:05:18;98762.94;;;7.99;49.90
79250;BME280;68679;51.030;7.584;2023-04-25T12:07:45;98760.84;;;8.06;49.78
79250;BME280;68679;51.030;7.584;2023-04-25T12:10:15;98771.56;;;7.99;47.31
79250;BME280;68679;51.030;7.584;2023-04-25T12:12:42;98760.59;;;8.18;48.89
79250;BME280;68679;51.030;7.584;2023-04-25T12:17:38;98755.38;;;8.33;49.22
79250;BME280;68679;51.030;7.584;2023-04-25T12:20:12;98756.69;;;8.41;47.55
79250;BME280;68679;51.030;7.584;2023-04-25T12:22:41;98746.47;;;8.54;47.20
79250;BME280;68679;51.030;7.584;2023-04-25T12:25:13;98764.28;;;8.42;49.61
79250;BME280;68679;51.030;7.584;2023-04-25T12:27:39;98750.44;;;8.42;47.43
79250;BME280;68679;51.030;7.584;2023-04-25T12:30:07;98763.22;;;8.43;49.01
79250;BME280;68679;51.030;7.584;2023-04-25T12:32:33;98761.91;;;8.51;47.60
79250;BME280;68679;51.030;7.584;2023-04-25T12:34:58;98768.44;;;8.53;46.94
79250;BME280;68679;51.030;7.584;2023-04-25T12:37:23;98773.13;;;8.72;46.47
79250;BME280;68679;51.030;7.584;2023-04-25T12:39:49;98768.66;;;8.82;47.17
79250;BME280;68679;51.030;7.584;2023-04-25T12:42:14;98776.22;;;8.84;47.86
79250;BME280;68679;51.030;7.584;2023-04-25T12:44:40;98772.31;;;8.81;44.12
79250;BME280;68679;51.030;7.584;2023-04-25T12:47:05;98775.22;;;8.80;44.27
79250;BME280;68679;51.030;7.584;2023-04-25T12:49:31;98778.06;;;8.73;44.89
79250;BME280;68679;51.030;7.584;2023-04-25T12:51:57;98784.59;;;8.86;44.34
79250;BME280;68679;51.030;7.584;2023-04-25T12:54:22;98804.97;;;8.89;45.46
79250;BME280;68679;51.030;7.584;2023-04-25T12:56:48;98798.47;;;8.61;47.83
79250;BME280;68679;51.030;7.584;2023-04-25T12:59:13;98801.09;;;8.61;48.59
79250;BME280;68679;51.030;7.584;2023-04-25T13:01:39;98808.97;;;8.51;49.21
79250;BME280;68679;51.030;7.584;2023-04-25T13:04:04;98812.63;;;8.45;50.55
79250;BME280;68679;51.030;7.584;2023-04-25T13:06:30;98811.03;;;8.54;49.23
79250;BME280;68679;51.030;7.584;2023-04-25T13:08:56;98816.78;;;8.51;50.88
79250;BME280;68679;51.030;7.584;2023-04-25T13:11:21;98821.25;;;8.50;50.11
79250;BME280;68679;51.030;7.584;2023-04-25T13:13:46;98815.75;;;8.42;49.42
79250;BME280;68679;51.030;7.584;2023-04-25T13:16:12;98814.91;;;8.31;50.08
79250;BME280;68679;51.030;7.584;2023-04-25T13:18:41;98831.97;;;8.44;50.73
79250;BME280;68679;51.030;7.584;2023-04-25T13:21:07;98819.91;;;8.32;50.03